createdAt,value
2023-03-03T00:00:06.490Z,87.75
2023-03-03T00:01:06.509Z,87.85
2023-03-03T00:02:06.480Z,87.85
2023-03-03T00:03:06.518Z,87.85
2023-03-03T00:04:06.432Z,87.85
2023-03-03T00:05:06.484Z,88.06
2023-03-03T00:06:06.405Z,88.06
2023-03-03T00:07:06.416Z,88.17
2023-03-03T00:08:06.374Z,88.06
2023-03-03T00:09:06.412Z,87.85
2023-03-03T00:10:06.363Z,87.75
2023-03-03T00:11:06.377Z,87.89
2023-03-03T00:12:06.348Z,88.10
2023-03-03T00:13:06.368Z,88.31
2023-03-03T00:14:06.321Z,88.42
2023-03-03T00:15:06.307Z,88.42
2023-03-03T00:16:06.331Z,88.31
2023-03-03T00:17:06.307Z,88.42
2023-03-03T00:18:06.243Z,88.52
2023-03-03T00:19:06.270Z,88.62
2023-03-03T00:20:06.232Z,88.52
2023-03-03T00:21:06.243Z,88.20
2023-03-03T00:22:06.219Z,87.93
2023-03-03T00:23:06.217Z,88.14
2023-03-03T00:24:06.172Z,88.70
2023-03-03T00:25:06.178Z,89.22
2023-03-03T00:26:06.144Z,89.64
2023-03-03T00:27:06.176Z,89.95
2023-03-03T00:28:06.220Z,90.16
2023-03-03T00:29:06.127Z,90.26
2023-03-03T00:30:06.097Z,90.33
2023-03-03T00:31:06.134Z,90.22
2023-03-03T00:32:06.116Z,89.91
2023-03-03T00:33:06.083Z,89.54
2023-03-03T00:34:06.037Z,89.32
2023-03-03T00:35:06.037Z,89.32
2023-03-03T00:36:06.005Z,89.22
2023-03-03T00:37:06.014Z,89.01
2023-03-03T00:38:05.998Z,89.01
2023-03-03T00:39:06.001Z,89.22
2023-03-03T00:40:05.960Z,89.32
2023-03-03T00:41:05.968Z,89.43
2023-03-03T00:42:05.954Z,89.43
2023-03-03T00:43:05.972Z,89.32
2023-03-03T00:44:05.898Z,89.32
2023-03-03T00:45:05.926Z,89.32
2023-03-03T00:46:05.916Z,89.43
2023-03-03T00:47:05.895Z,89.64
2023-03-03T00:48:05.873Z,89.64
2023-03-03T00:49:05.896Z,89.85
2023-03-03T00:50:05.839Z,89.75
2023-03-03T00:51:05.847Z,89.64
2023-03-03T00:52:05.803Z,89.43
2023-03-03T00:53:05.821Z,89.43
2023-03-03T00:54:05.840Z,89.50
2023-03-03T00:55:05.788Z,89.50
2023-03-03T00:56:05.736Z,89.39
2023-03-03T00:57:05.748Z,89.18
2023-03-03T00:58:05.714Z,89.08
2023-03-03T00:59:05.751Z,89.08
2023-03-03T01:00:05.720Z,89.08
2023-03-03T01:01:05.739Z,89.18
2023-03-03T01:02:05.652Z,89.18
2023-03-03T01:03:05.688Z,89.18
2023-03-03T01:04:05.660Z,89.08
2023-03-03T01:05:05.672Z,88.98
2023-03-03T01:06:05.624Z,88.76
2023-03-03T01:07:05.618Z,88.76
2023-03-03T01:08:05.590Z,88.66
2023-03-03T01:09:05.597Z,88.56
2023-03-03T01:10:05.582Z,88.56
2023-03-03T01:11:05.602Z,88.45
2023-03-03T01:12:05.602Z,88.45
2023-03-03T01:13:05.545Z,88.66
2023-03-03T01:14:05.582Z,88.66
2023-03-03T01:15:05.553Z,88.49
2023-03-03T01:16:05.583Z,88.08
2023-03-03T01:17:05.488Z,88.08
2023-03-03T01:18:05.459Z,88.08
2023-03-03T01:19:05.520Z,88.29
2023-03-03T01:20:05.437Z,88.49
2023-03-03T01:21:05.481Z,88.75
2023-03-03T01:22:05.414Z,88.85
2023-03-03T01:23:05.441Z,89.16
2023-03-03T01:24:05.406Z,89.37
2023-03-03T01:25:05.389Z,89.58
2023-03-03T01:26:05.367Z,89.78
2023-03-03T01:27:05.366Z,90.10
2023-03-03T01:28:05.351Z,90.31
2023-03-03T01:29:05.336Z,90.31
2023-03-03T01:30:05.311Z,90.20
2023-03-03T01:31:05.418Z,90.10
2023-03-03T01:32:05.309Z,90.10
2023-03-03T01:33:05.294Z,90.10
2023-03-03T01:34:05.250Z,90.10
2023-03-03T01:35:05.304Z,90.10
2023-03-03T01:36:05.289Z,90.00
2023-03-03T01:37:05.228Z,90.20
2023-03-03T01:38:05.224Z,90.31
2023-03-03T01:39:05.211Z,90.41
2023-03-03T01:40:05.180Z,90.47
2023-03-03T01:41:05.210Z,90.47
2023-03-03T01:42:05.158Z,90.37
2023-03-03T01:43:05.171Z,90.16
2023-03-03T01:44:05.115Z,89.95
2023-03-03T01:45:05.182Z,89.68
2023-03-03T01:46:05.117Z,89.68
2023-03-03T01:47:05.116Z,89.89
2023-03-03T01:48:05.099Z,90.00
2023-03-03T01:49:05.093Z,90.10
2023-03-03T01:50:05.034Z,90.20
2023-03-03T01:51:05.065Z,90.10
2023-03-03T01:52:05.047Z,90.10
2023-03-03T01:53:05.063Z,90.00
2023-03-03T01:54:04.989Z,89.95
2023-03-03T01:55:05.109Z,89.95
2023-03-03T01:56:04.989Z,89.75
2023-03-03T01:57:05.023Z,89.54
2023-03-03T01:58:05.017Z,89.26
2023-03-03T01:59:04.938Z,88.95
2023-03-03T02:00:04.938Z,88.75
2023-03-03T02:01:04.935Z,88.89
2023-03-03T02:02:04.978Z,89.20
2023-03-03T02:03:04.987Z,89.62
2023-03-03T02:04:04.872Z,89.93
2023-03-03T02:05:04.888Z,90.25
2023-03-03T02:06:05.529Z,90.14
2023-03-03T02:07:04.850Z,89.93
2023-03-03T02:08:04.800Z,89.83
2023-03-03T02:09:04.852Z,89.93
2023-03-03T02:10:04.781Z,89.93
2023-03-03T02:11:04.785Z,89.93
2023-03-03T02:12:04.775Z,90.14
2023-03-03T02:13:04.772Z,90.35
2023-03-03T02:14:04.743Z,90.39
2023-03-03T02:15:04.723Z,90.39
2023-03-03T02:16:04.726Z,90.70
2023-03-03T02:17:04.715Z,90.77
2023-03-03T02:18:04.689Z,90.66
2023-03-03T02:19:04.704Z,90.50
2023-03-03T02:20:04.665Z,90.28
2023-03-03T02:21:04.664Z,90.64
2023-03-03T02:22:04.643Z,90.95
2023-03-03T02:23:04.652Z,91.37
2023-03-03T02:24:04.596Z,91.58
2023-03-03T02:25:04.651Z,91.79
2023-03-03T02:26:04.579Z,91.89
2023-03-03T02:27:04.575Z,92.00
2023-03-03T02:28:04.570Z,91.89
2023-03-03T02:29:04.564Z,91.58
2023-03-03T02:30:04.540Z,91.47
2023-03-03T02:31:04.534Z,91.47
2023-03-03T02:32:04.560Z,91.22
2023-03-03T02:33:04.508Z,90.91
2023-03-03T02:34:04.473Z,90.50
2023-03-03T02:35:04.477Z,90.28
2023-03-03T02:36:04.449Z,90.12
2023-03-03T02:37:04.445Z,89.70
2023-03-03T02:38:04.406Z,89.39
2023-03-03T02:39:04.436Z,89.22
2023-03-03T02:40:04.383Z,89.36
2023-03-03T02:41:04.411Z,89.78
2023-03-03T02:42:04.362Z,90.31
2023-03-03T02:43:04.372Z,90.66
2023-03-03T02:44:04.360Z,90.97
2023-03-03T02:45:04.365Z,91.50
2023-03-03T02:46:04.370Z,91.77
2023-03-03T02:47:04.314Z,91.98
2023-03-03T02:48:04.278Z,92.08
2023-03-03T02:49:04.306Z,92.08
2023-03-03T02:50:04.276Z,92.19
2023-03-03T02:51:04.314Z,92.08
2023-03-03T02:52:04.228Z,91.98
2023-03-03T02:53:04.229Z,91.66
2023-03-03T02:54:04.238Z,91.66
2023-03-03T02:55:04.231Z,91.66
2023-03-03T02:56:04.196Z,91.87
2023-03-03T02:57:04.190Z,91.98
2023-03-03T02:58:04.172Z,92.19
2023-03-03T02:59:04.156Z,92.19
2023-03-03T03:00:04.123Z,92.08
2023-03-03T03:01:04.209Z,91.83
2023-03-03T03:02:04.094Z,91.52
2023-03-03T03:03:04.131Z,91.31
2023-03-03T03:04:04.083Z,91.20
2023-03-03T03:05:04.084Z,91.20
2023-03-03T03:06:04.033Z,91.10
2023-03-03T03:07:04.057Z,90.78
2023-03-03T03:08:04.036Z,90.52
2023-03-03T03:09:04.036Z,90.52
2023-03-03T03:10:04.009Z,90.72
2023-03-03T03:11:03.977Z,90.62
2023-03-03T03:12:04.005Z,90.93
2023-03-03T03:13:03.946Z,90.45
2023-03-03T03:14:03.976Z,90.08
2023-03-03T03:15:03.920Z,90.28
2023-03-03T03:16:03.934Z,90.70
2023-03-03T03:17:03.896Z,90.91
2023-03-03T03:18:03.912Z,91.02
2023-03-03T03:19:03.876Z,90.91
2023-03-03T03:20:03.900Z,90.91
2023-03-03T03:21:03.847Z,90.39
2023-03-03T03:22:03.864Z,89.86
2023-03-03T03:23:03.806Z,90.11
2023-03-03T03:24:03.840Z,90.33
2023-03-03T03:25:03.807Z,90.64
2023-03-03T03:26:03.816Z,90.91
2023-03-03T03:27:03.771Z,91.22
2023-03-03T03:28:03.774Z,91.54
2023-03-03T03:29:03.819Z,91.43
2023-03-03T03:30:03.784Z,91.37
2023-03-03T03:31:03.767Z,91.37
2023-03-03T03:32:03.816Z,91.47
2023-03-03T03:33:03.690Z,91.47
2023-03-03T03:34:03.694Z,91.37
2023-03-03T03:35:03.685Z,91.31
2023-03-03T03:36:03.719Z,91.62
2023-03-03T03:37:03.628Z,91.89
2023-03-03T03:38:03.699Z,92.21
2023-03-03T03:39:03.639Z,92.31
2023-03-03T03:40:03.613Z,92.21
2023-03-03T03:41:03.643Z,91.96
2023-03-03T03:42:03.595Z,91.64
2023-03-03T03:43:03.556Z,91.64
2023-03-03T03:44:03.571Z,91.75
2023-03-03T03:45:03.544Z,91.75
2023-03-03T03:46:03.651Z,91.75
2023-03-03T03:47:03.520Z,91.85
2023-03-03T03:48:03.498Z,91.96
2023-03-03T03:49:03.465Z,92.16
2023-03-03T03:50:03.506Z,92.38
2023-03-03T03:51:03.508Z,92.48
2023-03-03T03:52:03.497Z,92.65
2023-03-03T03:53:03.426Z,92.65
2023-03-03T03:54:03.445Z,92.75
2023-03-03T03:55:03.392Z,92.75
2023-03-03T03:56:03.432Z,92.60
2023-03-03T03:57:03.385Z,92.23
2023-03-03T03:58:03.376Z,91.60
2023-03-03T03:59:03.396Z,91.28
2023-03-03T04:00:03.334Z,91.12
2023-03-03T04:01:03.386Z,90.91
2023-03-03T04:02:03.454Z,90.70
2023-03-03T04:03:03.517Z,90.59
2023-03-03T04:04:03.276Z,90.53
2023-03-03T04:05:03.301Z,90.84
2023-03-03T04:06:03.282Z,90.95
2023-03-03T04:07:03.881Z,91.20
2023-03-03T04:08:03.243Z,91.52
2023-03-03T04:09:03.266Z,91.94
2023-03-03T04:10:03.203Z,92.10
2023-03-03T04:11:03.254Z,92.10
2023-03-03T04:12:03.179Z,91.89
2023-03-03T04:13:03.290Z,91.37
2023-03-03T04:14:03.182Z,91.16
2023-03-03T04:15:03.166Z,91.06
2023-03-03T04:16:03.203Z,90.84
2023-03-03T04:17:03.164Z,90.84
2023-03-03T04:18:03.132Z,90.84
2023-03-03T04:19:03.106Z,90.84
2023-03-03T04:20:03.071Z,90.84
2023-03-03T04:21:03.126Z,90.74
2023-03-03T04:22:03.064Z,90.59
2023-03-03T04:23:03.070Z,90.53
2023-03-03T04:24:03.037Z,90.64
2023-03-03T04:25:03.062Z,90.84
2023-03-03T04:26:03.008Z,91.06
2023-03-03T04:27:03.038Z,91.22
2023-03-03T04:28:05.406Z,91.43
2023-03-03T04:29:03.009Z,91.75
2023-03-03T04:30:02.944Z,91.75
2023-03-03T04:31:03.015Z,91.12
2023-03-03T04:32:02.936Z,90.74
2023-03-03T04:33:02.949Z,90.22
2023-03-03T04:34:02.897Z,90.26
2023-03-03T04:35:08.055Z,90.47
2023-03-03T04:36:02.914Z,90.93
2023-03-03T04:37:02.908Z,91.46
2023-03-03T04:38:02.858Z,91.71
2023-03-03T04:39:02.859Z,92.23
2023-03-03T04:40:02.842Z,92.65
2023-03-03T04:41:02.820Z,93.07
2023-03-03T04:42:02.817Z,93.38
2023-03-03T04:43:02.818Z,93.38
2023-03-03T04:44:02.788Z,93.38
2023-03-03T04:45:02.763Z,93.59
2023-03-03T04:46:02.815Z,93.55
2023-03-03T04:47:02.766Z,93.55
2023-03-03T04:48:02.735Z,93.44
2023-03-03T04:49:02.730Z,93.24
2023-03-03T04:50:02.701Z,92.92
2023-03-03T04:51:02.700Z,92.50
2023-03-03T04:52:02.685Z,92.40
2023-03-03T04:53:02.653Z,92.40
2023-03-03T04:54:02.625Z,92.29
2023-03-03T04:55:02.654Z,92.19
2023-03-03T04:56:02.606Z,91.98
2023-03-03T04:57:02.634Z,91.87
2023-03-03T04:58:02.575Z,91.14
2023-03-03T04:59:02.590Z,90.45
2023-03-03T05:00:02.564Z,90.66
2023-03-03T05:01:02.557Z,90.97
2023-03-03T05:02:02.553Z,91.28
2023-03-03T05:03:02.577Z,91.60
2023-03-03T05:04:02.500Z,91.91
2023-03-03T05:05:02.570Z,92.19
2023-03-03T05:06:02.486Z,92.19
2023-03-03T05:07:02.496Z,91.77
2023-03-03T05:08:02.469Z,91.35
2023-03-03T05:09:02.465Z,91.18
2023-03-03T05:10:02.413Z,90.87
2023-03-03T05:11:02.497Z,90.80
2023-03-03T05:12:02.382Z,91.22
2023-03-03T05:13:02.397Z,91.43
2023-03-03T05:14:02.377Z,91.53
2023-03-03T05:15:02.413Z,91.75
2023-03-03T05:16:02.377Z,92.02
2023-03-03T05:17:02.354Z,92.13
2023-03-03T05:18:02.311Z,92.13
2023-03-03T05:19:02.344Z,92.23
2023-03-03T05:20:02.318Z,92.23
2023-03-03T05:21:02.279Z,92.23
2023-03-03T05:22:02.258Z,92.33
2023-03-03T05:23:02.283Z,92.40
2023-03-03T05:24:02.246Z,92.54
2023-03-03T05:25:02.315Z,92.65
2023-03-03T05:26:02.216Z,92.92
2023-03-03T05:27:02.220Z,93.34
2023-03-03T05:28:02.190Z,93.44
2023-03-03T05:29:02.182Z,93.44
2023-03-03T05:30:02.191Z,93.44
2023-03-03T05:31:02.167Z,93.34
2023-03-03T05:32:02.239Z,93.24
2023-03-03T05:33:02.135Z,93.13
2023-03-03T05:34:02.089Z,93.13
2023-03-03T05:35:02.121Z,93.24
2023-03-03T05:36:02.118Z,93.13
2023-03-03T05:37:02.115Z,93.24
2023-03-03T05:38:05.015Z,93.24
2023-03-03T05:39:02.104Z,93.44
2023-03-03T05:40:02.091Z,93.65
2023-03-03T05:41:02.058Z,93.65
2023-03-03T05:42:02.001Z,93.65
2023-03-03T05:43:02.033Z,93.71
2023-03-03T05:44:01.969Z,93.82
2023-03-03T05:45:02.008Z,93.82
2023-03-03T05:46:01.936Z,93.93
2023-03-03T05:47:01.976Z,93.93
2023-03-03T05:48:01.901Z,94.03
2023-03-03T05:49:01.932Z,94.13
2023-03-03T05:50:01.898Z,94.24
2023-03-03T05:51:01.920Z,94.30
2023-03-03T05:52:01.882Z,94.30
2023-03-03T05:53:01.884Z,94.30
2023-03-03T05:54:01.838Z,94.09
2023-03-03T05:55:01.870Z,93.99
2023-03-03T05:56:01.810Z,93.99
2023-03-03T05:57:01.855Z,93.99
2023-03-03T05:58:01.828Z,93.74
2023-03-03T05:59:01.790Z,93.52
2023-03-03T06:00:01.789Z,93.21
2023-03-03T06:01:01.807Z,92.79
2023-03-03T06:02:01.786Z,92.48
2023-03-03T06:03:01.788Z,92.27
2023-03-03T06:04:01.727Z,92.16
2023-03-03T06:05:01.743Z,91.75
2023-03-03T06:06:01.700Z,91.43
2023-03-03T06:07:01.705Z,91.47
2023-03-03T06:08:01.696Z,91.58
2023-03-03T06:09:01.670Z,91.79
2023-03-03T06:10:02.491Z,92.06
2023-03-03T06:11:01.660Z,92.16
2023-03-03T06:12:01.600Z,92.10
2023-03-03T06:13:01.640Z,92.21
2023-03-03T06:14:01.592Z,92.52
2023-03-03T06:15:01.628Z,92.83
2023-03-03T06:16:01.631Z,93.19
2023-03-03T06:17:01.571Z,93.40
2023-03-03T06:18:01.584Z,93.71
2023-03-03T06:19:01.580Z,93.93
2023-03-03T06:20:01.531Z,94.24
2023-03-03T06:21:01.546Z,94.24
2023-03-03T06:22:01.494Z,94.45
2023-03-03T06:23:01.491Z,94.66
2023-03-03T06:24:01.468Z,94.76
2023-03-03T06:25:01.475Z,94.87
2023-03-03T06:26:01.430Z,95.07
2023-03-03T06:27:01.434Z,95.29
2023-03-03T06:28:01.403Z,95.50
2023-03-03T06:29:01.435Z,95.60
2023-03-03T06:30:01.379Z,95.70
2023-03-03T06:31:01.407Z,95.81
2023-03-03T06:32:01.444Z,96.02
2023-03-03T06:33:01.377Z,96.12
2023-03-03T06:34:01.308Z,96.17
2023-03-03T06:35:01.327Z,96.27
2023-03-03T06:36:01.359Z,96.48
2023-03-03T06:37:01.317Z,96.65
2023-03-03T06:38:01.300Z,96.75
2023-03-03T06:39:01.280Z,96.86
2023-03-03T06:40:01.249Z,96.71
2023-03-03T06:41:01.273Z,96.65
2023-03-03T06:42:01.226Z,96.55
2023-03-03T06:43:01.224Z,96.44
2023-03-03T06:44:01.197Z,96.44
2023-03-03T06:45:01.238Z,96.44
2023-03-03T06:46:01.241Z,96.44
2023-03-03T06:47:01.170Z,96.44
2023-03-03T06:48:01.153Z,96.55
2023-03-03T06:49:01.164Z,96.75
2023-03-03T06:50:01.110Z,96.86
2023-03-03T06:51:01.153Z,97.06
2023-03-03T06:52:01.086Z,97.28
2023-03-03T06:53:01.095Z,97.49
2023-03-03T06:54:01.081Z,97.59
2023-03-03T06:55:01.083Z,97.59
2023-03-03T06:56:01.107Z,97.69
2023-03-03T06:57:01.048Z,97.80
2023-03-03T06:58:01.017Z,97.91
2023-03-03T06:59:01.042Z,97.91
2023-03-03T07:00:01.007Z,97.91
2023-03-03T07:01:01.031Z,97.75
2023-03-03T07:02:00.965Z,97.65
2023-03-03T07:03:00.963Z,97.65
2023-03-03T07:04:00.987Z,97.65
2023-03-03T07:05:01.083Z,97.65
2023-03-03T07:06:00.895Z,97.61
2023-03-03T07:07:00.939Z,97.61
2023-03-03T07:08:00.871Z,97.61
2023-03-03T07:09:00.877Z,97.50
2023-03-03T07:10:00.901Z,97.39
2023-03-03T07:11:00.876Z,97.39
2023-03-03T07:12:00.856Z,97.39
2023-03-03T07:13:00.857Z,97.39
2023-03-03T07:14:00.802Z,97.50
2023-03-03T07:15:00.909Z,97.50
2023-03-03T07:16:00.798Z,97.61
2023-03-03T07:17:00.795Z,97.45
2023-03-03T07:18:00.776Z,97.45
2023-03-03T07:19:00.768Z,97.56
2023-03-03T07:20:00.744Z,97.31
2023-03-03T07:21:01.584Z,97.20
2023-03-03T07:22:00.700Z,96.89
2023-03-03T07:23:00.725Z,96.68
2023-03-03T07:24:00.691Z,96.58
2023-03-03T07:25:00.675Z,96.26
2023-03-03T07:26:00.683Z,96.05
2023-03-03T07:27:00.686Z,95.95
2023-03-03T07:28:00.662Z,96.05
2023-03-03T07:29:00.634Z,96.16
2023-03-03T07:30:00.614Z,96.16
2023-03-03T07:31:00.620Z,96.26
2023-03-03T07:32:00.711Z,96.26
2023-03-03T07:33:00.567Z,96.01
2023-03-03T07:34:00.584Z,95.90
2023-03-03T07:35:00.533Z,95.80
2023-03-03T07:36:00.558Z,95.59
2023-03-03T07:37:00.543Z,95.17
2023-03-03T07:38:00.521Z,95.17
2023-03-03T07:39:00.493Z,95.17
2023-03-03T07:40:00.502Z,95.07
2023-03-03T07:41:00.528Z,95.17
2023-03-03T07:42:00.489Z,94.96
2023-03-03T07:43:00.442Z,94.96
2023-03-03T07:44:00.448Z,94.92
2023-03-03T07:45:00.414Z,94.61
2023-03-03T07:46:02.549Z,94.71
2023-03-03T07:47:00.388Z,94.61
2023-03-03T07:48:00.417Z,94.09
2023-03-03T07:49:00.360Z,93.88
2023-03-03T07:50:00.363Z,93.35
2023-03-03T07:51:00.319Z,92.83
2023-03-03T07:52:00.358Z,92.90
2023-03-03T07:53:00.318Z,92.47
2023-03-03T07:54:00.322Z,92.58
2023-03-03T07:55:00.265Z,92.37
2023-03-03T07:56:00.274Z,92.16
2023-03-03T07:57:00.262Z,92.37
2023-03-03T07:58:00.243Z,92.47
2023-03-03T07:59:00.225Z,92.54
2023-03-03T08:00:00.259Z,92.65
2023-03-03T08:01:00.258Z,92.54
2023-03-03T08:02:00.242Z,91.91
2023-03-03T08:03:00.180Z,91.60
2023-03-03T08:04:00.260Z,91.81
2023-03-03T08:05:01.314Z,91.50
2023-03-03T08:06:00.184Z,91.18
2023-03-03T08:07:00.144Z,91.29
2023-03-03T08:08:00.217Z,91.08
2023-03-03T08:09:00.134Z,91.08
2023-03-03T08:10:00.165Z,91.71
2023-03-03T08:11:00.077Z,92.18
2023-03-03T08:12:00.107Z,92.40
2023-03-03T08:13:00.021Z,92.40
2023-03-03T08:14:00.143Z,92.08
2023-03-03T08:15:00.024Z,92.03
2023-03-03T08:16:00.028Z,92.14
2023-03-03T08:17:01.825Z,91.72
2023-03-03T08:18:00.025Z,91.62
2023-03-03T08:18:59.970Z,91.52
2023-03-03T08:19:59.962Z,91.20
2023-03-03T08:20:59.930Z,90.89
2023-03-03T08:21:59.925Z,90.89
2023-03-03T08:22:59.926Z,91.20
2023-03-03T08:23:59.928Z,91.41
2023-03-03T08:24:59.867Z,91.58
2023-03-03T08:25:59.891Z,91.47
2023-03-03T08:26:59.887Z,91.37
2023-03-03T08:27:59.851Z,91.33
2023-03-03T08:28:59.830Z,91.02
2023-03-03T08:29:59.839Z,90.29
2023-03-03T08:31:14.348Z,88.42
2023-03-03T08:31:59.921Z,88.52
2023-03-03T08:32:59.794Z,88.48
2023-03-03T08:33:59.802Z,88.37
2023-03-03T08:34:59.732Z,88.33
2023-03-03T08:35:59.859Z,88.12
2023-03-03T08:36:59.704Z,87.60
2023-03-03T08:37:59.730Z,87.25
2023-03-03T08:38:59.745Z,86.32
2023-03-03T08:39:59.679Z,85.49
2023-03-03T08:40:59.659Z,85.28
2023-03-03T08:41:59.659Z,85.59
2023-03-03T08:42:59.647Z,85.49
2023-03-03T08:43:59.681Z,85.49
2023-03-03T08:44:59.602Z,85.49
2023-03-03T08:45:59.729Z,85.13
2023-03-03T08:46:59.604Z,84.65
2023-03-03T08:47:59.590Z,84.44
2023-03-03T08:48:59.567Z,85.13
2023-03-03T08:49:59.575Z,85.55
2023-03-03T08:50:59.562Z,85.20
2023-03-03T08:51:59.525Z,85.10
2023-03-03T08:52:59.513Z,84.53
2023-03-03T08:53:59.536Z,84.53
2023-03-03T08:54:59.569Z,84.12
2023-03-03T08:55:59.493Z,83.46
2023-03-03T08:56:59.460Z,82.94
2023-03-03T08:57:59.468Z,83.36
2023-03-03T08:59:02.462Z,82.80
2023-03-03T08:59:59.430Z,81.97
2023-03-03T09:00:59.383Z,81.59
2023-03-03T09:01:59.465Z,81.70
2023-03-03T09:02:59.435Z,82.01
2023-03-03T09:03:59.369Z,82.18
2023-03-03T09:04:59.373Z,82.07
2023-03-03T09:05:59.382Z,81.30
2023-03-03T09:06:59.345Z,81.51
2023-03-03T09:07:59.332Z,80.99
2023-03-03T09:08:59.275Z,80.75
2023-03-03T09:09:59.341Z,80.44
2023-03-03T09:10:59.246Z,81.16
2023-03-03T09:11:59.317Z,80.61
2023-03-03T09:12:59.247Z,79.16
2023-03-03T09:13:59.239Z,78.33
2023-03-03T09:14:59.217Z,78.96
2023-03-03T09:15:59.262Z,79.16
2023-03-03T09:16:59.176Z,79.58
2023-03-03T09:17:59.215Z,79.06
2023-03-03T09:18:59.151Z,78.44
2023-03-03T09:19:59.162Z,78.85
2023-03-03T09:20:59.116Z,78.64
2023-03-03T09:21:59.165Z,78.40
2023-03-03T09:22:59.128Z,77.36
2023-03-03T09:23:59.110Z,78.57
2023-03-03T09:24:59.171Z,78.02
2023-03-03T09:25:59.097Z,77.50
2023-03-03T09:26:59.116Z,77.60
2023-03-03T09:27:59.092Z,77.19
2023-03-03T09:28:59.042Z,77.19
2023-03-03T09:29:59.012Z,76.78
2023-03-03T09:30:58.970Z,76.53
2023-03-03T09:31:59.416Z,75.60
2023-03-03T09:32:59.001Z,75.09
2023-03-03T09:33:58.985Z,75.26
2023-03-03T09:34:58.924Z,74.84
2023-03-03T09:35:58.958Z,73.50
2023-03-03T09:36:58.905Z,73.50
2023-03-03T09:37:58.907Z,74.33
2023-03-03T09:38:58.910Z,73.81
2023-03-03T09:39:58.912Z,71.64
2023-03-03T09:40:58.839Z,72.36
2023-03-03T09:41:58.857Z,72.05
2023-03-03T09:42:58.820Z,72.16
2023-03-03T09:43:58.834Z,72.05
2023-03-03T09:44:58.822Z,72.78
2023-03-03T09:45:58.804Z,71.74
2023-03-03T09:46:58.861Z,71.47
2023-03-03T09:47:58.804Z,71.67
2023-03-03T09:48:58.735Z,71.50
2023-03-03T09:50:00.732Z,72.43
2023-03-03T09:50:58.743Z,73.54
2023-03-03T09:51:58.727Z,72.60
2023-03-03T09:52:58.680Z,73.50
2023-03-03T09:53:58.714Z,71.74
2023-03-03T09:54:58.653Z,73.19
2023-03-03T09:55:58.683Z,72.98
2023-03-03T09:56:58.650Z,71.81
2023-03-03T09:58:10.152Z,71.50
2023-03-03T09:58:58.625Z,72.40
2023-03-03T09:59:58.621Z,71.37
2023-03-03T10:00:58.618Z,70.64
2023-03-03T10:01:58.627Z,70.54
2023-03-03T10:02:58.597Z,70.30
2023-03-03T10:03:58.620Z,69.37
2023-03-03T10:04:58.523Z,68.88
2023-03-03T10:05:58.526Z,68.88
2023-03-03T10:06:58.612Z,68.99
2023-03-03T10:07:58.500Z,70.54
2023-03-03T10:08:58.489Z,69.27
2023-03-03T10:09:58.493Z,69.06
2023-03-03T10:10:58.446Z,68.54
2023-03-03T10:11:58.465Z,68.10
2023-03-03T10:12:58.428Z,68.24
2023-03-03T10:13:58.435Z,68.34
2023-03-03T10:14:58.392Z,68.72
2023-03-03T10:15:58.423Z,67.03
2023-03-03T10:16:58.413Z,66.49
2023-03-03T10:17:58.392Z,66.60
2023-03-03T10:18:58.339Z,66.63
2023-03-03T10:19:58.373Z,67.24
2023-03-03T10:20:58.349Z,67.58
2023-03-03T10:21:58.337Z,66.27
2023-03-03T10:22:58.305Z,67.21
2023-03-03T10:23:59.337Z,66.86
2023-03-03T10:24:58.253Z,68.21
2023-03-03T10:25:58.260Z,68.41
2023-03-03T10:27:12.327Z,69.00
2023-03-03T10:27:58.248Z,68.55
2023-03-03T10:28:58.215Z,67.60
2023-03-03T10:29:58.206Z,65.92
2023-03-03T10:31:05.022Z,64.99
2023-03-03T10:31:58.419Z,65.71
2023-03-03T10:32:58.367Z,66.67
2023-03-03T10:33:58.297Z,67.24
2023-03-03T10:34:58.121Z,68.17
2023-03-03T10:36:07.001Z,68.17
2023-03-03T10:36:58.095Z,68.90
2023-03-03T10:37:58.134Z,67.66
2023-03-03T10:38:58.100Z,66.27
2023-03-03T10:39:58.079Z,68.54
2023-03-03T10:40:58.073Z,68.75
2023-03-03T10:41:58.065Z,68.34
2023-03-03T10:42:58.044Z,67.93
2023-03-03T10:43:58.065Z,67.61
2023-03-03T10:44:58.123Z,67.30
2023-03-03T10:45:58.129Z,67.61
2023-03-03T10:46:57.959Z,68.34
2023-03-03T10:47:58.063Z,68.65
2023-03-03T10:48:57.969Z,68.93
2023-03-03T10:49:57.980Z,69.54
2023-03-03T10:50:58.074Z,68.21
2023-03-03T10:51:57.923Z,68.41
2023-03-03T10:52:58.005Z,68.51
2023-03-03T10:53:57.917Z,68.00
2023-03-03T10:54:57.879Z,68.69
2023-03-03T10:55:57.862Z,67.35
2023-03-03T10:56:57.834Z,67.76
2023-03-03T10:57:57.886Z,67.66
2023-03-03T10:58:57.960Z,67.35
2023-03-03T10:59:57.816Z,66.73
2023-03-03T11:00:58.360Z,66.42
2023-03-03T11:01:57.803Z,67.24
2023-03-03T11:02:57.743Z,66.63
2023-03-03T11:03:57.907Z,67.00
2023-03-03T11:04:57.816Z,66.91
2023-03-03T11:05:57.940Z,65.36
2023-03-03T11:06:57.714Z,67.00
2023-03-03T11:07:57.722Z,65.02
2023-03-03T11:08:57.709Z,66.77
2023-03-03T11:09:57.678Z,65.56
2023-03-03T11:10:57.649Z,65.88
2023-03-03T11:11:57.689Z,65.25
2023-03-03T11:12:57.671Z,66.11
2023-03-03T11:13:57.789Z,65.56
2023-03-03T11:14:57.782Z,64.53
2023-03-03T11:15:57.626Z,66.08
2023-03-03T11:16:57.608Z,65.36
2023-03-03T11:17:57.939Z,64.53
2023-03-03T11:19:00.606Z,65.88
2023-03-03T11:19:57.748Z,66.28
2023-03-03T11:20:57.746Z,66.36
2023-03-03T11:21:57.591Z,67.49
2023-03-03T11:22:57.692Z,67.08
2023-03-03T11:23:57.500Z,67.08
2023-03-03T11:24:57.482Z,66.05
2023-03-03T11:25:57.604Z,66.87
2023-03-03T11:26:57.461Z,65.92
2023-03-03T11:27:57.451Z,64.68
2023-03-03T11:28:57.401Z,65.53
2023-03-03T11:29:57.449Z,65.64
2023-03-03T11:30:57.440Z,65.25
2023-03-03T11:31:57.456Z,65.46
2023-03-03T11:32:57.370Z,64.43
2023-03-03T11:33:57.361Z,65.33
2023-03-03T11:34:57.350Z,64.81
2023-03-03T11:35:57.368Z,64.71
2023-03-03T11:36:57.311Z,64.29
2023-03-03T11:37:57.310Z,64.19
2023-03-03T11:38:57.296Z,65.95
2023-03-03T11:39:57.310Z,66.15
2023-03-03T11:40:57.267Z,64.37
2023-03-03T11:41:57.224Z,64.58
2023-03-03T11:42:57.252Z,64.37
2023-03-03T11:43:57.239Z,64.58
2023-03-03T11:44:57.233Z,63.93
2023-03-03T11:45:57.303Z,62.79
2023-03-03T11:46:57.202Z,63.28
2023-03-03T11:47:57.163Z,62.56
2023-03-03T11:48:57.209Z,62.35
2023-03-03T11:49:57.146Z,63.39
2023-03-03T11:50:57.130Z,61.98
2023-03-03T11:51:57.099Z,62.49
2023-03-03T11:52:57.127Z,63.13
2023-03-03T11:53:57.076Z,62.93
2023-03-03T11:54:57.121Z,63.65
2023-03-03T11:55:57.052Z,64.24
2023-03-03T11:56:57.059Z,64.03
2023-03-03T11:57:57.050Z,64.62
2023-03-03T11:58:57.051Z,63.39
2023-03-03T11:59:57.020Z,62.66
2023-03-03T12:00:57.474Z,63.31
2023-03-03T12:01:56.966Z,64.24
2023-03-03T12:02:56.990Z,64.44
2023-03-03T12:03:56.950Z,64.24
2023-03-03T12:04:56.985Z,64.00
2023-03-03T12:05:57.028Z,63.62
2023-03-03T12:06:58.668Z,64.00
2023-03-03T12:07:56.901Z,64.00
2023-03-03T12:08:56.900Z,62.25
2023-03-03T12:09:56.872Z,63.18
2023-03-03T12:10:56.894Z,62.87
2023-03-03T12:11:56.869Z,64.21
2023-03-03T12:12:56.830Z,63.76
2023-03-03T12:13:56.819Z,62.53
2023-03-03T12:14:56.819Z,63.15
2023-03-03T12:15:56.859Z,63.25
2023-03-03T12:16:56.816Z,63.25
2023-03-03T12:17:56.763Z,63.46
2023-03-03T12:18:56.764Z,62.46
2023-03-03T12:19:56.733Z,64.11
2023-03-03T12:20:56.745Z,64.07
2023-03-03T12:21:56.721Z,63.56
2023-03-03T12:23:06.377Z,63.46
2023-03-03T12:23:56.707Z,63.94
2023-03-03T12:24:56.702Z,63.15
2023-03-03T12:25:56.655Z,62.23
2023-03-03T12:26:56.668Z,64.18
2023-03-03T12:27:56.684Z,64.79
2023-03-03T12:28:56.638Z,64.76
2023-03-03T12:29:56.611Z,62.40
2023-03-03T12:30:56.709Z,61.68
2023-03-03T12:31:56.637Z,63.32
2023-03-03T12:32:56.601Z,61.88
2023-03-03T12:33:56.542Z,63.02
2023-03-03T12:34:56.551Z,62.09
2023-03-03T12:35:56.598Z,62.53
2023-03-03T12:36:56.549Z,63.35
2023-03-03T12:37:56.515Z,63.22
2023-03-03T12:38:56.507Z,63.74
2023-03-03T12:39:56.476Z,63.53
2023-03-03T12:40:56.501Z,62.81
2023-03-03T12:41:56.460Z,63.02
2023-03-03T12:42:56.437Z,62.40
2023-03-03T12:43:56.426Z,62.71
2023-03-03T12:44:56.457Z,62.63
2023-03-03T12:45:56.408Z,63.02
2023-03-03T12:46:56.435Z,63.64
2023-03-03T12:47:56.360Z,61.88
2023-03-03T12:48:56.379Z,61.99
2023-03-03T12:50:06.427Z,62.88
2023-03-03T12:50:56.369Z,62.68
2023-03-03T12:51:56.334Z,61.86